Thursday, March 5, 2015, 9:22 PM EST

KPOU, Poughkeepsie Dutchess Cty

Location: Wappingers Falls, NY, United States Lat: 41.633
Local Time: 9:22 PM EST ( 2:22 GMT) Lon: -73.883
Time Zone: US/Eastern Elev: 167 ft

Show me the last for .
Show Decoded

2015-03-05 19:53 METAR KPOU 060053Z AUTO 35005KT 10SM FEW120 M06/M16 A3027 RMK AO2 SLP249
                 T10561156 =
2015-03-05 18:53 METAR KPOU 052353Z AUTO 04004KT 10SM SCT120 M06/M14 A3025 RMK AO2 SLP243
                 T10561139 11039 21056 51027 =
2015-03-05 17:53 METAR KPOU 052253Z AUTO 01006KT 10SM OVC120 M06/M15 A3023 =
2015-03-05 16:53 METAR KPOU 052153Z AUTO 02006KT 10SM BKN055 OVC075 M05/M16 A3020 RMK AO2 SLP225
                 T10501156 =
2015-03-05 15:53 METAR KPOU 052053Z AUTO 02009KT 10SM OVC080 M05/M16 A3017 RMK AO2 SLP216
                 T10501156 52008 =
2015-03-05 14:53 METAR KPOU 051953Z 02008KT 10SM OVC075 M04/M16 A3016 =
2015-03-05 13:53 METAR KPOU 051853Z 02009KT 10SM BKN045 OVC065 M04/M16 A3016 RMK AO2 SLP211
                 T10441156 =
2015-03-05 12:53 METAR KPOU 051753Z 02009KT 10SM OVC085 M04/M16 A3015 RMK AO2 SLP207 T10391156
                 11017 21039 53002 =
2015-03-05 11:53 METAR KPOU 051653Z 34008KT 10SM OVC080 M03/M16 A3014 RMK AO2 SLP206 T10331156 =
2015-03-05 10:53 METAR KPOU 051553Z 36007KT 10SM OVC070 M03/M14 A3012 RMK AO2 SLP199 T10331144 =
2015-03-05 09:53 METAR KPOU 051453Z 02009KT 10SM OVC065 M03/M13 A3014 RMK AO2 SLP204 T10331133
                 51029 =
2015-03-05 08:53 METAR KPOU 051353Z 35010G17KT 10SM OVC036 M02/M11 A3013 RMK AO2 SLP200 T10221111
                 =
2015-03-05 07:53 METAR KPOU 051253Z 01010G19KT 10SM OVC042 M02/M10 A3008 RMK AO2 SLP185 T10221100
                 =
2015-03-05 06:53 METAR KPOU 051153Z 35012G21KT 10SM OVC065 M02/M09 A3005 RMK AO2 SLP174 60001
                 70003 T10171094 10017 21017 52023 =
2015-03-05 05:53 METAR KPOU 051053Z AUTO 03009KT 9SM OVC037 M01/M06 A3002 RMK AO2 SNB08E48 SLP164
                 P0000 T10111061 =
2015-03-05 05:48 METAR KPOU 051048Z AUTO 02011KT 9SM OVC033 M01/M06 A3001 RMK AO2 SNB08E48 P0000
                 =
2015-03-05 05:41 METAR KPOU 051041Z AUTO 02011G18KT 5SM -SN OVC029 M01/M06 A3001 RMK AO2 SNB08
                 P0000 T10111056 =
2015-03-05 05:14 METAR KPOU 051014Z AUTO 36012G19KT 2SM -SN FEW021 OVC029 M01/M04 A3000 RMK AO2
                 SNB08 P0000 T10061039 =
2015-03-05 05:10 METAR KPOU 051010Z AUTO 36014G19KT 3SM -SN BR FEW025 OVC035 M01/M02 A3000 RMK
                 AO2 SNB08 P0000 T10061022 =
2015-03-05 04:53 METAR KPOU 050953Z AUTO 00000KT 2 1/2SM BR OVC046 01/M01 A2998 RMK AO2 SLP151
                 T00061006 =
2015-03-05 04:29 METAR KPOU 050929Z AUTO 00000KT 3SM BR SCT005 BKN050 OVC075 01/M01 A2997 RMK AO2
                 PRESRR T00111006 =
2015-03-05 04:18 METAR KPOU 050918Z AUTO 00000KT 2 1/2SM BR BKN005 OVC070 01/M01 A2995 RMK AO2
                 PRESRR T00061006 =
2015-03-05 03:53 METAR KPOU 050853Z AUTO 00000KT 2 1/2SM BR FEW003 OVC070 01/00 A2992 RMK AO2
                 SNE0759 SLP128 P0000 60001 T00060000 51000 =
2015-03-05 03:51 METAR KPOU 050851Z AUTO 00000KT 2 1/2SM BR FEW003 OVC070 01/00 A2991 RMK AO2
                 SNE0759 P0000 =
2015-03-05 03:28 METAR KPOU 050828Z AUTO 00000KT 2 1/2SM BR OVC070 01/00 A2991 RMK AO2 SNE0759
                 P0000 T00110000 =
2015-03-05 03:03 METAR KPOU 050803Z AUTO 00000KT 3SM BR SCT040 OVC070 01/00 A2993 RMK AO2 SNE0759
                 P0000 T00110000 =
2015-03-05 02:53 METAR KPOU 050753Z AUTO 00000KT 2 1/2SM -SN BR FEW024 OVC040 01/M01 A2992 RMK
                 AO2 SLP131 P0000 T00061006 =
2015-03-05 02:38 METAR KPOU 050738Z AUTO 22004KT 2SM -SN BR FEW008 SCT023 OVC032 01/M01 A2992 RMK
                 AO2 P0000 T00061006 =
2015-03-05 02:25 METAR KPOU 050725Z AUTO 00000KT 1 3/4SM -SN BR BKN006 BKN023 OVC032 01/M01 A2991
                 RMK AO2 P0000 T00111006 =
2015-03-05 02:08 METAR KPOU 050708Z AUTO 00000KT 2SM -SN BR BKN007 OVC021 01/M01 A2991 RMK AO2
                 P0000 T00111006 =
2015-03-05 01:53 METAR KPOU 050653Z AUTO 00000KT 2 1/2SM -SN BR FEW005 BKN018 OVC023 01/M01 A2991
                 RMK AO2 SLP127 P0001 T00111006 =
2015-03-05 01:38 METAR KPOU 050638Z AUTO 00000KT 3SM -SN BR FEW005 SCT017 OVC022 01/M01 A2992 RMK
                 AO2 P0001 T00111006 =
2015-03-05 01:15 METAR KPOU 050615Z AUTO 36004KT 2SM -SN BR OVC020 01/M01 A2991 RMK AO2 P0000
                 T00111006 =
2015-03-05 00:53 METAR KPOU 050553Z AUTO 36005KT 4SM -SN BR BKN018 OVC023 02/M01 A2991 RMK AO2
                 UPE07SNB45 SLP125 P0001 60002 T00171006 10039 20017 53008 =
2015-03-04 23:53 METAR KPOU 050453Z AUTO 33006KT 7SM UP BKN024 OVC028 03/01 A2990 RMK AO2
                 RAB10E51UPB51 SLP121 P0001 T00280006 400610017 =
2015-03-04 23:38 METAR KPOU 050438Z AUTO 33009KT 8SM -RA BKN024 BKN029 OVC036 03/01 A2990 RMK AO2
                 RAB10 P0001 T00330006 =
2015-03-04 22:53 METAR KPOU 050353Z AUTO 22005KT 9SM OVC055 03/01 A2989 RMK AO2 SLP119 T00330006
                 =

Support USWX by starting your Amazon purchase here.